Time;durP1;ratioP1;P1;durP2;ratioP2;P2;SDS_P1;SDS_P2;PMS_P1;PMS_P2;Temp;Humidity;BMP_temperature;BMP_pressure;BME280_temperature;BME280_humidity;BME280_pressure;Samples;Min_cycle;Max_cycle;Signal;HPM_P1;HPM_P2
2021/08/17 00:00:40;;;;;;;14.88;3.13;;;;;;;;;;5023004;28;20186;-70
2021/08/17 00:03:05;;;;;;;15.23;3.88;;;;;;;;;;5013293;28;20294;-72
2021/08/17 00:05:31;;;;;;;19.20;3.65;;;;;;;;;;5025765;28;20510;-71
2021/08/17 00:07:56;;;;;;;17.88;3.25;;;;;;;;;;5009163;28;20191;-70
2021/08/17 00:10:22;;;;;;;23.20;3.30;;;;;;;;;;5024192;28;20259;-70
2021/08/17 00:12:48;;;;;;;10.63;2.78;;;;;;;;;;5013794;28;20259;-71
2021/08/17 00:15:14;;;;;;;18.80;3.13;;;;;;;;;;5028494;28;20182;-70
2021/08/17 00:17:40;;;;;;;14.35;3.05;;;;;;;;;;5013080;28;20208;-70
2021/08/17 00:20:06;;;;;;;14.73;3.20;;;;;;;;;;5023653;28;20193;-70
2021/08/17 00:22:31;;;;;;;18.05;3.53;;;;;;;;;;5020158;28;20197;-70
2021/08/17 00:24:56;;;;;;;13.25;2.60;;;;;;;;;;5011902;28;20198;-70
2021/08/17 00:27:22;;;;;;;18.90;3.28;;;;;;;;;;5021501;28;20295;-71
2021/08/17 00:29:47;;;;;;;12.52;2.88;;;;;;;;;;5014878;28;20332;-74
2021/08/17 00:32:13;;;;;;;15.77;3.22;;;;;;;;;;5023476;28;20645;-70
2021/08/17 00:34:39;;;;;;;14.60;2.70;;;;;;;;;;5016598;28;20191;-71
2021/08/17 00:37:04;;;;;;;18.02;2.97;;;;;;;;;;5019474;28;20202;-70
2021/08/17 00:39:31;;;;;;;13.73;2.45;;;;;;;;;;5011990;28;20183;-70
2021/08/17 00:41:57;;;;;;;11.85;2.85;;;;;;;;;;5021627;28;20193;-70
2021/08/17 00:44:23;;;;;;;16.00;2.92;;;;;;;;;;5014520;28;20225;-70
2021/08/17 00:46:49;;;;;;;11.20;2.60;;;;;;;;;;5024725;28;20189;-70
2021/08/17 00:49:14;;;;;;;14.45;2.67;;;;;;;;;;5015406;28;20570;-71
2021/08/17 00:51:40;;;;;;;14.23;2.70;;;;;;;;;;5018970;28;20190;-70
2021/08/17 00:54:06;;;;;;;17.98;2.88;;;;;;;;;;5018830;28;20241;-69
2021/08/17 00:56:31;;;;;;;13.70;2.80;;;;;;;;;;5013726;28;20236;-71
2021/08/17 00:58:56;;;;;;;13.77;2.95;;;;;;;;;;5021501;28;20211;-70
2021/08/17 01:01:22;;;;;;;16.60;3.08;;;;;;;;;;5016041;28;20192;-70
2021/08/17 01:03:47;;;;;;;18.50;3.45;;;;;;;;;;5019265;28;20239;-73
2021/08/17 01:06:12;;;;;;;20.75;2.65;;;;;;;;;;5014878;28;20286;-70
2021/08/17 01:08:39;;;;;;;12.98;2.33;;;;;;;;;;5022926;28;20211;-70
2021/08/17 01:11:05;;;;;;;13.63;2.88;;;;;;;;;;5013983;28;20195;-73
2021/08/17 01:13:30;;;;;;;8.80;2.15;;;;;;;;;;5024388;28;20225;-70
2021/08/17 01:15:57;;;;;;;8.20;2.30;;;;;;;;;;5013001;28;20217;-69
2021/08/17 01:18:23;;;;;;;18.70;3.00;;;;;;;;;;5025095;28;20189;-70
2021/08/17 01:20:53;;;;;;;15.18;2.55;;;;;;;;;;5016209;28;20186;-70
2021/08/17 01:23:20;;;;;;;18.50;2.60;;;;;;;;;;5021382;28;20255;-69
2021/08/17 01:25:46;;;;;;;19.63;3.35;;;;;;;;;;5019764;28;20186;-70
2021/08/17 01:28:12;;;;;;;20.02;3.25;;;;;;;;;;5011284;28;20210;-69
2021/08/17 01:30:37;;;;;;;17.23;2.75;;;;;;;;;;5025340;28;20193;-70
2021/08/17 01:33:02;;;;;;;14.35;3.20;;;;;;;;;;5011434;28;20214;-70
2021/08/17 01:35:28;;;;;;;13.27;2.13;;;;;;;;;;5024683;28;20186;-70
2021/08/17 01:37:54;;;;;;;14.38;2.40;;;;;;;;;;5017509;28;20194;-73
2021/08/17 01:40:19;;;;;;;14.43;2.25;;;;;;;;;;5019508;28;20182;-70
2021/08/17 01:42:51;;;;;;;11.95;2.50;;;;;;;;;;5016990;28;20296;-72
2021/08/17 01:45:18;;;;;;;10.65;2.60;;;;;;;;;;5015841;28;20633;-74
2021/08/17 01:47:44;;;;;;;11.30;2.42;;;;;;;;;;5017428;28;20185;-70
2021/08/17 01:50:11;;;;;;;12.80;2.40;;;;;;;;;;5015619;28;20202;-69
2021/08/17 01:52:36;;;;;;;16.35;2.80;;;;;;;;;;5012868;28;20195;-70
2021/08/17 01:55:04;;;;;;;16.58;2.40;;;;;;;;;;5024680;28;20177;-69
2021/08/17 01:57:29;;;;;;;13.82;2.90;;;;;;;;;;5023194;28;20194;-69
2021/08/17 01:59:55;;;;;;;12.82;2.30;;;;;;;;;;5013536;28;20248;-70
2021/08/17 02:02:20;;;;;;;12.25;2.22;;;;;;;;;;5021441;28;20237;-72
2021/08/17 02:04:45;;;;;;;11.32;2.15;;;;;;;;;;5017185;28;20201;-70
2021/08/17 02:07:11;;;;;;;14.05;2.40;;;;;;;;;;5019431;28;20189;-69
2021/08/17 02:09:36;;;;;;;13.27;1.73;;;;;;;;;;5013259;28;20202;-70
2021/08/17 02:12:01;;;;;;;14.52;2.22;;;;;;;;;;5024472;28;20189;-70
2021/08/17 02:14:27;;;;;;;14.75;2.05;;;;;;;;;;5010981;28;20202;-70
2021/08/17 02:16:53;;;;;;;14.93;2.17;;;;;;;;;;5020058;28;20639;-70
2021/08/17 02:19:18;;;;;;;10.43;2.35;;;;;;;;;;5020676;28;20182;-70
2021/08/17 02:21:44;;;;;;;14.00;2.55;;;;;;;;;;5019784;28;20664;-70
2021/08/17 02:24:09;;;;;;;15.85;2.63;;;;;;;;;;5023373;28;20213;-70
2021/08/17 02:26:35;;;;;;;12.07;2.22;;;;;;;;;;5020849;28;23383;-71
2021/08/17 02:29:00;;;;;;;12.82;2.83;;;;;;;;;;5027741;28;20564;-70
2021/08/17 02:31:26;;;;;;;15.65;3.08;;;;;;;;;;5014209;28;20233;-71
2021/08/17 02:33:51;;;;;;;16.10;2.75;;;;;;;;;;5029981;28;20193;-70
2021/08/17 02:36:17;;;;;;;12.73;2.83;;;;;;;;;;5013096;28;20186;-71
2021/08/17 02:38:42;;;;;;;17.63;3.08;;;;;;;;;;5027433;28;20205;-71
2021/08/17 02:41:07;;;;;;;16.55;2.65;;;;;;;;;;5019295;28;20201;-70
2021/08/17 02:43:33;;;;;;;12.75;2.90;;;;;;;;;;5021904;28;20221;-70
2021/08/17 02:45:58;;;;;;;11.93;2.60;;;;;;;;;;5014797;28;20187;-70
2021/08/17 02:48:24;;;;;;;21.50;2.88;;;;;;;;;;5061336;28;20650;-70
2021/08/17 02:50:49;;;;;;;12.93;2.33;;;;;;;;;;5015855;28;20285;-70
2021/08/17 02:53:15;;;;;;;16.02;2.53;;;;;;;;;;5029477;28;20209;-70
2021/08/17 02:55:42;;;;;;;14.13;3.50;;;;;;;;;;5017902;28;20190;-69
2021/08/17 02:58:09;;;;;;;11.40;2.25;;;;;;;;;;5025502;28;20201;-70
2021/08/17 03:00:36;;;;;;;15.50;3.38;;;;;;;;;;5013439;28;20233;-69
2021/08/17 03:03:02;;;;;;;14.90;2.33;;;;;;;;;;5019576;28;20692;-70
2021/08/17 03:05:27;;;;;;;9.25;2.35;;;;;;;;;;5021693;28;20224;-70
2021/08/17 03:07:55;;;;;;;10.70;2.70;;;;;;;;;;5022735;28;20243;-70
2021/08/17 03:10:22;;;;;;;14.27;3.17;;;;;;;;;;5016807;28;20229;-69
2021/08/17 03:12:48;;;;;;;12.82;2.65;;;;;;;;;;5020377;28;21224;-69
2021/08/17 03:15:13;;;;;;;14.50;2.72;;;;;;;;;;5023555;28;20684;-69
2021/08/17 03:17:39;;;;;;;15.85;2.15;;;;;;;;;;5018894;28;20186;-70
2021/08/17 03:20:06;;;;;;;14.73;2.58;;;;;;;;;;5025597;28;20670;-70
2021/08/17 03:22:32;;;;;;;15.80;3.00;;;;;;;;;;5016057;28;20194;-70
2021/08/17 03:24:57;;;;;;;21.10;2.60;;;;;;;;;;5020936;28;20194;-71
2021/08/17 03:27:23;;;;;;;16.20;2.40;;;;;;;;;;5025098;28;20220;-69
2021/08/17 03:29:48;;;;;;;17.75;2.70;;;;;;;;;;5019088;28;20217;-70
2021/08/17 03:32:14;;;;;;;15.25;2.50;;;;;;;;;;5025163;28;20182;-69
2021/08/17 03:34:39;;;;;;;12.63;2.35;;;;;;;;;;5016589;28;20186;-69
2021/08/17 03:37:04;;;;;;;13.23;2.28;;;;;;;;;;5024202;28;20687;-70
2021/08/17 03:39:29;;;;;;;11.27;2.63;;;;;;;;;;5010152;28;20197;-70
2021/08/17 03:41:55;;;;;;;11.60;2.85;;;;;;;;;;5029957;28;20182;-71
2021/08/17 03:44:20;;;;;;;12.98;2.40;;;;;;;;;;5014210;28;20217;-70
2021/08/17 03:46:45;;;;;;;10.82;2.55;;;;;;;;;;5023345;28;20228;-69
2021/08/17 03:49:11;;;;;;;13.60;2.55;;;;;;;;;;5014139;28;20201;-70
2021/08/17 03:51:36;;;;;;;12.80;2.42;;;;;;;;;;5019645;28;20190;-69
2021/08/17 03:54:01;;;;;;;17.23;3.45;;;;;;;;;;5012559;28;20209;-69
2021/08/17 03:56:27;;;;;;;12.57;2.60;;;;;;;;;;5019094;28;20217;-71
2021/08/17 03:58:52;;;;;;;14.15;2.80;;;;;;;;;;5011030;28;26907;-70
2021/08/17 04:01:19;;;;;;;14.80;3.25;;;;;;;;;;5015292;28;20183;-70
2021/08/17 04:03:45;;;;;;;13.43;2.42;;;;;;;;;;5018172;28;20282;-69
2021/08/17 04:06:10;;;;;;;17.90;2.88;;;;;;;;;;5012836;28;20265;-69
2021/08/17 04:08:36;;;;;;;12.18;2.05;;;;;;;;;;5017577;28;20190;-69
2021/08/17 04:11:02;;;;;;;14.98;2.58;;;;;;;;;;5006941;28;20214;-70
2021/08/17 04:13:27;;;;;;;12.23;3.05;;;;;;;;;;5022391;28;21219;-69
2021/08/17 04:15:52;;;;;;;16.42;2.80;;;;;;;;;;5011768;28;20203;-69
2021/08/17 04:18:18;;;;;;;14.20;2.40;;;;;;;;;;5031694;28;20194;-71
2021/08/17 04:20:43;;;;;;;11.35;2.63;;;;;;;;;;5010271;28;20205;-70
2021/08/17 04:23:08;;;;;;;13.02;3.05;;;;;;;;;;5020638;28;20186;-70
2021/08/17 04:25:34;;;;;;;16.88;3.00;;;;;;;;;;5014969;28;20195;-70
2021/08/17 04:27:59;;;;;;;10.05;2.55;;;;;;;;;;5016141;28;20598;-70
2021/08/17 04:30:24;;;;;;;14.52;2.67;;;;;;;;;;5013248;28;20207;-70
2021/08/17 04:32:50;;;;;;;17.27;3.95;;;;;;;;;;5016817;28;20194;-70
2021/08/17 04:35:19;;;;;;;13.73;2.70;;;;;;;;;;5014383;28;20191;-70
2021/08/17 04:37:45;;;;;;;13.65;2.70;;;;;;;;;;5011730;28;20197;-71
2021/08/17 04:40:10;;;;;;;10.10;3.13;;;;;;;;;;5019290;28;20178;-69
2021/08/17 04:42:36;;;;;;;14.20;2.55;;;;;;;;;;5015561;28;20242;-69
2021/08/17 04:45:02;;;;;;;12.98;2.90;;;;;;;;;;5026478;28;20560;-71
2021/08/17 04:47:27;;;;;;;10.65;2.13;;;;;;;;;;5015068;28;20217;-70
2021/08/17 04:49:53;;;;;;;14.07;3.60;;;;;;;;;;5022071;28;20709;-70
2021/08/17 04:52:19;;;;;;;14.13;3.22;;;;;;;;;;5012106;28;20556;-71
2021/08/17 04:54:44;;;;;;;12.23;2.60;;;;;;;;;;5020417;28;20236;-70
2021/08/17 04:57:09;;;;;;;10.82;2.90;;;;;;;;;;5013421;28;20189;-69
2021/08/17 04:59:35;;;;;;;13.45;2.75;;;;;;;;;;5018127;28;20205;-72
2021/08/17 05:02:00;;;;;;;10.85;2.72;;;;;;;;;;5009403;28;20197;-70
2021/08/17 05:04:26;;;;;;;19.00;2.83;;;;;;;;;;5023273;28;20214;-69
2021/08/17 05:06:51;;;;;;;12.68;2.53;;;;;;;;;;5020215;28;20191;-70
2021/08/17 05:09:17;;;;;;;22.65;3.40;;;;;;;;;;5008009;28;20202;-69
2021/08/17 05:11:42;;;;;;;12.00;3.38;;;;;;;;;;5015729;28;20598;-70
2021/08/17 05:14:07;;;;;;;15.23;3.15;;;;;;;;;;5018675;28;20348;-71
2021/08/17 05:16:34;;;;;;;8.93;2.70;;;;;;;;;;5022957;28;20252;-70
2021/08/17 05:19:00;;;;;;;15.45;2.80;;;;;;;;;;5019054;28;20182;-70
2021/08/17 05:21:25;;;;;;;13.48;2.70;;;;;;;;;;5016581;28;20695;-71
2021/08/17 05:23:50;;;;;;;13.15;2.80;;;;;;;;;;5018552;28;20317;-70
2021/08/17 05:26:16;;;;;;;14.25;3.20;;;;;;;;;;5018195;28;20191;-70
2021/08/17 05:28:41;;;;;;;19.10;3.60;;;;;;;;;;5029587;28;20209;-70
2021/08/17 05:31:06;;;;;;;12.52;3.40;;;;;;;;;;5019619;28;20202;-71
2021/08/17 05:33:32;;;;;;;12.07;3.58;;;;;;;;;;5021300;28;20182;-70
2021/08/17 05:35:57;;;;;;;9.18;3.10;;;;;;;;;;5021584;28;20205;-70
2021/08/17 05:38:23;;;;;;;11.80;2.95;;;;;;;;;;5021642;28;20270;-70
2021/08/17 05:40:48;;;;;;;12.70;3.20;;;;;;;;;;5009226;28;20321;-70
2021/08/17 05:43:13;;;;;;;13.90;3.00;;;;;;;;;;5021472;28;20178;-70
2021/08/17 05:45:38;;;;;;;13.00;3.35;;;;;;;;;;5011698;28;20193;-70
2021/08/17 05:48:04;;;;;;;16.48;3.50;;;;;;;;;;5022706;28;20273;-70
2021/08/17 05:50:29;;;;;;;15.05;3.75;;;;;;;;;;5011737;28;20740;-70
2021/08/17 05:52:55;;;;;;;14.80;3.08;;;;;;;;;;5025744;28;20185;-70
2021/08/17 05:55:20;;;;;;;11.35;2.85;;;;;;;;;;5012769;28;20311;-70
2021/08/17 05:57:59;;;;;;;7.70;2.90;;;;;;;;;;5020233;28;20193;-70
2021/08/17 06:00:26;;;;;;;13.98;2.97;;;;;;;;;;5008749;28;20186;-70
2021/08/17 06:02:51;;;;;;;14.38;3.50;;;;;;;;;;5026246;28;20226;-70
2021/08/17 06:05:17;;;;;;;11.75;2.80;;;;;;;;;;5009426;28;20716;-70
2021/08/17 06:07:50;;;;;;;15.90;3.35;;;;;;;;;;5027100;28;20209;-70
2021/08/17 06:10:16;;;;;;;12.23;3.22;;;;;;;;;;5008716;28;20252;-72
2021/08/17 06:12:43;;;;;;;20.27;3.28;;;;;;;;;;5024486;28;20197;-70
2021/08/17 06:15:09;;;;;;;11.38;3.55;;;;;;;;;;5019755;28;20182;-69
2021/08/17 06:17:35;;;;;;;13.70;3.85;;;;;;;;;;5016900;28;20213;-70
2021/08/17 06:20:01;;;;;;;11.93;3.25;;;;;;;;;;5019032;28;20202;-70
2021/08/17 06:22:27;;;;;;;12.00;3.55;;;;;;;;;;5014764;28;20181;-70
2021/08/17 06:24:52;;;;;;;12.88;3.75;;;;;;;;;;5022506;28;20182;-70
2021/08/17 06:27:19;;;;;;;11.23;3.67;;;;;;;;;;5014228;28;20197;-70
2021/08/17 06:29:44;;;;;;;15.27;3.30;;;;;;;;;;5019910;28;20198;-69
2021/08/17 06:32:09;;;;;;;10.10;3.08;;;;;;;;;;5014527;28;20552;-70
2021/08/17 06:34:35;;;;;;;12.88;3.83;;;;;;;;;;5023015;28;20182;-70
2021/08/17 06:37:00;;;;;;;13.05;3.67;;;;;;;;;;5014849;28;20208;-71
2021/08/17 06:39:26;;;;;;;15.98;3.63;;;;;;;;;;5023635;28;20178;-70
2021/08/17 06:41:51;;;;;;;10.57;3.40;;;;;;;;;;5019812;28;20197;-70
2021/08/17 06:44:16;;;;;;;13.63;3.50;;;;;;;;;;5016734;28;20287;-70
2021/08/17 06:46:42;;;;;;;14.70;3.50;;;;;;;;;;5020172;28;20204;-72
2021/08/17 06:49:07;;;;;;;10.82;3.08;;;;;;;;;;5017425;28;20190;-71
2021/08/17 06:51:32;;;;;;;11.45;3.28;;;;;;;;;;5023485;28;20193;-70
2021/08/17 06:53:58;;;;;;;14.00;3.65;;;;;;;;;;5014298;28;20289;-69
2021/08/17 06:56:23;;;;;;;10.07;3.35;;;;;;;;;;5021671;28;20190;-72
2021/08/17 06:58:48;;;;;;;10.75;3.45;;;;;;;;;;5011789;28;20309;-71
2021/08/17 07:01:14;;;;;;;10.82;3.75;;;;;;;;;;5023008;28;20197;-70
2021/08/17 07:03:39;;;;;;;10.10;3.05;;;;;;;;;;5005969;28;20248;-69
2021/08/17 07:06:05;;;;;;;13.07;3.60;;;;;;;;;;5026736;28;20268;-70
2021/08/17 07:08:31;;;;;;;9.68;3.83;;;;;;;;;;5013024;28;20261;-69
2021/08/17 07:10:56;;;;;;;11.02;3.53;;;;;;;;;;5022324;28;20213;-70
2021/08/17 07:13:22;;;;;;;11.93;3.67;;;;;;;;;;5024039;28;20582;-69
2021/08/17 07:15:47;;;;;;;13.57;3.83;;;;;;;;;;5017613;28;20193;-71
2021/08/17 07:18:12;;;;;;;9.25;3.28;;;;;;;;;;5023874;28;20178;-70
2021/08/17 07:20:39;;;;;;;10.80;3.88;;;;;;;;;;5016551;28;20224;-69
2021/08/17 07:23:05;;;;;;;11.63;4.10;;;;;;;;;;5026383;28;20185;-69
2021/08/17 07:25:30;;;;;;;14.52;3.97;;;;;;;;;;5014884;28;20201;-72
2021/08/17 07:27:56;;;;;;;13.65;4.07;;;;;;;;;;5027333;28;20641;-69
2021/08/17 07:30:21;;;;;;;12.40;4.53;;;;;;;;;;5018170;28;20607;-70
2021/08/17 07:32:47;;;;;;;11.77;4.38;;;;;;;;;;5021945;28;20182;-69
2021/08/17 07:35:16;;;;;;;13.68;4.60;;;;;;;;;;5010770;28;20281;-69
2021/08/17 07:37:42;;;;;;;13.68;4.50;;;;;;;;;;5025534;28;20193;-69
2021/08/17 07:40:08;;;;;;;12.05;4.68;;;;;;;;;;5012684;28;20191;-69
2021/08/17 07:42:34;;;;;;;11.05;4.72;;;;;;;;;;5023195;28;20173;-68
2021/08/17 07:44:59;;;;;;;15.55;5.47;;;;;;;;;;5017425;28;20181;-70
2021/08/17 07:47:25;;;;;;;19.13;5.82;;;;;;;;;;5010831;28;20190;-70
2021/08/17 07:49:50;;;;;;;12.40;5.05;;;;;;;;;;5024230;28;20205;-72
2021/08/17 07:52:16;;;;;;;13.43;5.20;;;;;;;;;;5016127;28;20194;-71
2021/08/17 07:54:41;;;;;;;16.20;5.65;;;;;;;;;;5023195;28;20182;-70
2021/08/17 07:57:06;;;;;;;12.68;5.50;;;;;;;;;;5029613;28;20273;-69
2021/08/17 07:59:32;;;;;;;13.98;5.68;;;;;;;;;;5023557;28;20210;-71
2021/08/17 08:01:57;;;;;;;12.63;5.97;;;;;;;;;;5013603;28;20194;-69
2021/08/17 08:04:22;;;;;;;12.25;6.43;;;;;;;;;;5022540;28;20226;-71
2021/08/17 08:06:49;;;;;;;13.18;6.22;;;;;;;;;;5013981;28;20202;-70
2021/08/17 08:09:14;;;;;;;17.83;7.20;;;;;;;;;;5025673;28;20204;-72
2021/08/17 08:11:39;;;;;;;13.73;6.35;;;;;;;;;;5014271;28;21127;-72
2021/08/17 08:14:05;;;;;;;18.25;7.43;;;;;;;;;;5020092;28;20239;-70
2021/08/17 08:16:30;;;;;;;18.08;7.32;;;;;;;;;;5022749;28;20681;-73
2021/08/17 08:18:55;;;;;;;12.80;6.95;;;;;;;;;;5012108;28;20197;-72
2021/08/17 08:21:21;;;;;;;24.55;12.52;;;;;;;;;;5022887;28;20214;-71
2021/08/17 08:23:46;;;;;;;20.00;7.40;;;;;;;;;;5014062;28;20186;-71
2021/08/17 08:26:11;;;;;;;18.50;7.65;;;;;;;;;;5023161;28;20189;-72
2021/08/17 08:28:37;;;;;;;15.25;8.32;;;;;;;;;;5012389;28;20228;-70
2021/08/17 08:31:02;;;;;;;14.38;7.50;;;;;;;;;;5022718;28;20295;-70
2021/08/17 08:33:28;;;;;;;18.88;7.15;;;;;;;;;;5026035;28;20541;-71
2021/08/17 08:35:53;;;;;;;21.17;8.45;;;;;;;;;;5023793;28;20305;-72
2021/08/17 08:38:19;;;;;;;18.23;7.50;;;;;;;;;;5013103;28;20289;-69
2021/08/17 08:40:46;;;;;;;16.88;7.68;;;;;;;;;;5020561;28;20175;-72
2021/08/17 08:43:12;;;;;;;16.35;7.82;;;;;;;;;;5011228;28;20186;-70
2021/08/17 08:45:38;;;;;;;19.63;10.27;;;;;;;;;;5029675;28;20551;-69
2021/08/17 08:48:05;;;;;;;16.38;9.63;;;;;;;;;;5017288;28;20239;-71
2021/08/17 08:50:33;;;;;;;20.20;8.63;;;;;;;;;;5013021;28;20665;-69
2021/08/17 08:52:59;;;;;;;19.73;8.73;;;;;;;;;;5022346;28;20191;-70
2021/08/17 08:55:25;;;;;;;19.23;9.23;;;;;;;;;;5013280;28;20186;-71
2021/08/17 08:57:50;;;;;;;21.17;8.80;;;;;;;;;;5035546;28;20277;-72
2021/08/17 09:00:16;;;;;;;20.65;9.02;;;;;;;;;;5012372;28;20189;-72
2021/08/17 09:02:43;;;;;;;18.05;9.13;;;;;;;;;;5019512;28;20229;-70
2021/08/17 09:05:09;;;;;;;15.48;8.70;;;;;;;;;;5013746;28;20194;-69
2021/08/17 09:07:38;;;;;;;19.95;9.80;;;;;;;;;;5022353;28;20733;-70
2021/08/17 09:10:13;;;;;;;16.92;8.88;;;;;;;;;;5021262;28;20260;-72
2021/08/17 09:12:44;;;;;;;18.15;9.60;;;;;;;;;;5019426;28;20186;-68
2021/08/17 09:15:13;;;;;;;22.02;10.02;;;;;;;;;;5019195;28;20217;-70
2021/08/17 09:17:40;;;;;;;19.35;8.82;;;;;;;;;;5023266;28;20225;-71
2021/08/17 09:20:08;;;;;;;19.08;9.73;;;;;;;;;;5017334;28;20297;-70
2021/08/17 09:22:33;;;;;;;18.38;10.10;;;;;;;;;;5020998;28;20753;-70
2021/08/17 09:25:02;;;;;;;19.70;9.55;;;;;;;;;;5023341;28;20193;-70
2021/08/17 09:27:30;;;;;;;22.50;9.65;;;;;;;;;;5017613;28;20186;-73
2021/08/17 09:30:12;;;;;;;23.45;11.02;;;;;;;;;;5023472;28;20673;-70
2021/08/17 09:32:50;;;;;;;22.65;11.07;;;;;;;;;;5012160;28;20579;-69
2021/08/17 09:35:18;;;;;;;24.02;11.30;;;;;;;;;;5014163;28;20744;-70
2021/08/17 09:37:43;;;;;;;22.38;10.65;;;;;;;;;;5015431;28;20508;-70
2021/08/17 09:40:09;;;;;;;19.52;11.18;;;;;;;;;;5015973;28;20186;-69
2021/08/17 09:42:35;;;;;;;25.10;11.65;;;;;;;;;;5018921;28;20231;-69
2021/08/17 09:45:18;;;;;;;26.45;11.30;;;;;;;;;;5019596;28;20545;-70
2021/08/17 09:47:55;;;;;;;21.58;11.20;;;;;;;;;;5016586;28;20194;-70
2021/08/17 09:50:22;;;;;;;22.13;11.90;;;;;;;;;;5021640;28;20194;-71
2021/08/17 09:52:49;;;;;;;22.92;11.90;;;;;;;;;;5011622;28;20206;-70
2021/08/17 09:55:20;;;;;;;21.92;10.80;;;;;;;;;;5021138;28;20174;-70
2021/08/17 09:57:46;;;;;;;22.98;10.95;;;;;;;;;;5011141;28;20198;-70
2021/08/17 10:00:16;;;;;;;23.70;10.73;;;;;;;;;;5020408;28;20229;-71
2021/08/17 10:02:45;;;;;;;29.48;11.02;;;;;;;;;;5015760;28;20229;-71
2021/08/17 10:05:14;;;;;;;24.50;11.57;;;;;;;;;;5016569;28;20230;-70
2021/08/17 10:07:40;;;;;;;29.25;12.25;;;;;;;;;;5012466;28;20653;-69
2021/08/17 10:10:07;;;;;;;23.23;11.77;;;;;;;;;;5015565;28;20222;-69
2021/08/17 10:12:33;;;;;;;22.27;10.98;;;;;;;;;;5014839;28;20206;-68
2021/08/17 10:14:58;;;;;;;23.40;11.68;;;;;;;;;;5021941;28;20227;-69
2021/08/17 10:17:24;;;;;;;25.83;11.23;;;;;;;;;;5024482;28;20182;-70
2021/08/17 10:19:50;;;;;;;23.40;11.23;;;;;;;;;;5007982;28;20195;-70
2021/08/17 10:22:18;;;;;;;30.92;12.75;;;;;;;;;;5021852;28;20541;-70
2021/08/17 10:24:47;;;;;;;27.58;11.77;;;;;;;;;;5010394;28;20182;-70
2021/08/17 10:27:18;;;;;;;26.00;12.27;;;;;;;;;;5026685;28;20601;-70
2021/08/17 10:30:17;;;;;;;28.58;12.80;;;;;;;;;;5008905;28;20194;-70
2021/08/17 10:32:50;;;;;;;28.10;12.23;;;;;;;;;;5017896;28;20619;-70
2021/08/17 10:35:32;;;;;;;28.27;11.25;;;;;;;;;;5012176;28;20186;-72
2021/08/17 10:38:17;;;;;;;27.83;11.95;;;;;;;;;;5026626;28;20221;-70
2021/08/17 10:41:05;;;;;;;21.77;11.50;;;;;;;;;;5018976;28;20271;-70
2021/08/17 10:43:30;;;;;;;24.38;11.63;;;;;;;;;;5021560;28;20225;-71
2021/08/17 10:46:15;;;;;;;23.67;10.90;;;;;;;;;;5010682;28;20280;-71
2021/08/17 10:48:48;;;;;;;22.95;11.40;;;;;;;;;;5022519;28;20198;-72
2021/08/17 10:51:23;;;;;;;22.83;10.95;;;;;;;;;;5022234;28;20576;-71
2021/08/17 10:54:03;;;;;;;16.83;9.43;;;;;;;;;;5022687;28;20537;-71
2021/08/17 10:56:37;;;;;;;17.90;9.13;;;;;;;;;;5018339;28;20198;-70
2021/08/17 10:59:03;;;;;;;17.00;9.38;;;;;;;;;;5018373;28;20430;-70
2021/08/17 11:01:34;;;;;;;22.70;9.55;;;;;;;;;;5023961;28;20190;-70
2021/08/17 11:04:18;;;;;;;16.50;9.52;;;;;;;;;;5023688;28;20229;-69
2021/08/17 11:06:55;;;;;;;17.48;8.98;;;;;;;;;;5020733;28;20186;-71
2021/08/17 11:09:37;;;;;;;17.33;9.23;;;;;;;;;;5034096;28;20205;-70
2021/08/17 11:12:10;;;;;;;15.27;9.13;;;;;;;;;;5011301;28;20205;-70
2021/08/17 11:14:38;;;;;;;17.17;8.35;;;;;;;;;;5030431;28;20190;-70
2021/08/17 11:17:08;;;;;;;17.77;8.50;;;;;;;;;;5014041;28;20190;-72
2021/08/17 11:19:36;;;;;;;18.25;9.38;;;;;;;;;;5018932;28;20193;-71
2021/08/17 11:22:04;;;;;;;17.23;8.55;;;;;;;;;;5015684;28;20183;-71
2021/08/17 11:24:34;;;;;;;20.23;9.88;;;;;;;;;;5029974;28;20572;-75
2021/08/17 11:27:01;;;;;;;14.77;8.20;;;;;;;;;;5012320;28;20273;-70
2021/08/17 11:29:40;;;;;;;15.90;8.50;;;;;;;;;;5028087;28;20201;-71
2021/08/17 11:32:08;;;;;;;17.73;8.10;;;;;;;;;;5015002;28;20239;-68
2021/08/17 11:34:37;;;;;;;14.95;7.85;;;;;;;;;;5024826;28;20264;-69
2021/08/17 11:37:07;;;;;;;17.75;7.85;;;;;;;;;;5012794;28;20581;-70
2021/08/17 11:39:37;;;;;;;13.88;7.00;;;;;;;;;;5023623;28;20186;-71
2021/08/17 11:42:18;;;;;;;11.50;6.13;;;;;;;;;;5015381;28;20196;-71
2021/08/17 11:44:44;;;;;;;11.00;6.25;;;;;;;;;;5026720;28;21795;-71
2021/08/17 11:47:14;;;;;;;13.23;5.90;;;;;;;;;;5011644;28;21237;-71
2021/08/17 11:49:41;;;;;;;10.80;6.45;;;;;;;;;;5019571;28;20205;-71
2021/08/17 11:52:21;;;;;;;14.45;6.80;;;;;;;;;;5018982;28;20204;-70
2021/08/17 11:54:51;;;;;;;14.32;6.65;;;;;;;;;;5023014;28;20265;-70
2021/08/17 11:57:19;;;;;;;12.75;7.05;;;;;;;;;;5021882;28;20205;-70
2021/08/17 11:59:46;;;;;;;13.23;6.80;;;;;;;;;;5016919;28;20297;-70
2021/08/17 12:02:19;;;;;;;15.48;6.72;;;;;;;;;;5025171;28;20193;-72
2021/08/17 12:04:49;;;;;;;12.25;6.20;;;;;;;;;;5012947;28;20190;-70
2021/08/17 12:07:16;;;;;;;11.30;6.47;;;;;;;;;;5018516;28;20651;-73
2021/08/17 12:09:43;;;;;;;12.43;6.45;;;;;;;;;;5014799;28;20288;-70
2021/08/17 12:12:11;;;;;;;14.23;7.22;;;;;;;;;;5017249;28;20202;-70
2021/08/17 12:14:37;;;;;;;12.32;6.65;;;;;;;;;;5005608;28;20194;-70
2021/08/17 12:17:03;;;;;;;12.40;6.43;;;;;;;;;;5020135;28;20190;-71
2021/08/17 12:19:29;;;;;;;12.43;5.57;;;;;;;;;;5011692;28;20210;-72
2021/08/17 12:21:54;;;;;;;11.57;5.53;;;;;;;;;;5029080;28;20192;-69
2021/08/17 12:24:21;;;;;;;14.00;6.53;;;;;;;;;;5010195;28;20197;-71
2021/08/17 12:26:59;;;;;;;17.27;6.60;;;;;;;;;;5019847;28;20199;-70
2021/08/17 12:29:25;;;;;;;11.07;5.80;;;;;;;;;;5029859;28;20215;-73
2021/08/17 12:31:52;;;;;;;11.50;5.47;;;;;;;;;;5021568;28;20221;-71
2021/08/17 12:34:18;;;;;;;8.32;5.50;;;;;;;;;;5023355;28;20272;-70
2021/08/17 12:36:50;;;;;;;9.50;5.15;;;;;;;;;;5011647;28;20788;-71
2021/08/17 12:39:21;;;;;;;12.05;5.20;;;;;;;;;;5012860;28;20182;-70
2021/08/17 12:42:10;;;;;;;14.40;6.00;;;;;;;;;;5019057;28;20284;-70
2021/08/17 12:44:38;;;;;;;12.27;5.60;;;;;;;;;;5018133;28;20187;-70
2021/08/17 12:47:13;;;;;;;11.82;5.75;;;;;;;;;;5019729;28;20186;-71
2021/08/17 12:49:44;;;;;;;11.10;5.15;;;;;;;;;;5022938;28;20255;-75
2021/08/17 12:52:26;;;;;;;8.38;5.10;;;;;;;;;;5013778;28;20663;-72
2021/08/17 12:55:13;;;;;;;9.05;4.57;;;;;;;;;;5019476;28;20228;-70
2021/08/17 12:57:42;;;;;;;12.30;4.47;;;;;;;;;;5008743;28;20197;-73
2021/08/17 13:00:10;;;;;;;7.15;4.30;;;;;;;;;;5020096;28;20197;-72
2021/08/17 13:02:36;;;;;;;8.80;4.22;;;;;;;;;;5014943;28;20221;-72
2021/08/17 13:05:06;;;;;;;13.65;5.07;;;;;;;;;;5022642;28;20260;-71
2021/08/17 13:07:33;;;;;;;9.15;4.80;;;;;;;;;;5017117;28;20194;-71
2021/08/17 13:09:58;;;;;;;8.55;4.70;;;;;;;;;;5022081;28;20264;-71
2021/08/17 13:12:25;;;;;;;11.10;4.55;;;;;;;;;;5012821;28;20244;-69
2021/08/17 13:14:51;;;;;;;13.77;5.20;;;;;;;;;;5024260;28;20194;-72
2021/08/17 13:17:16;;;;;;;8.27;4.40;;;;;;;;;;5014892;28;20236;-73
2021/08/17 13:19:41;;;;;;;12.82;4.97;;;;;;;;;;5024270;28;20183;-71
2021/08/17 13:22:07;;;;;;;7.60;4.43;;;;;;;;;;5013377;28;20213;-76
2021/08/17 13:24:32;;;;;;;9.77;4.15;;;;;;;;;;5023397;28;20651;-72
2021/08/17 13:26:58;;;;;;;8.05;4.50;;;;;;;;;;5026467;28;20194;-71
2021/08/17 13:29:24;;;;;;;10.80;4.95;;;;;;;;;;5014679;28;20733;-69
2021/08/17 13:31:50;;;;;;;10.18;5.10;;;;;;;;;;5021148;28;20202;-70
2021/08/17 13:34:15;;;;;;;11.73;5.03;;;;;;;;;;5013577;28;20548;-70
2021/08/17 13:36:41;;;;;;;9.57;5.10;;;;;;;;;;5017407;28;20269;-73
2021/08/17 13:39:06;;;;;;;9.50;4.90;;;;;;;;;;5015358;28;20198;-70
2021/08/17 13:41:32;;;;;;;9.82;4.57;;;;;;;;;;5015193;28;20196;-70
2021/08/17 13:43:58;;;;;;;8.15;4.82;;;;;;;;;;5015900;28;20194;-69
2021/08/17 13:46:24;;;;;;;6.90;4.50;;;;;;;;;;5020828;28;20684;-71
2021/08/17 13:48:49;;;;;;;8.98;4.53;;;;;;;;;;5013759;28;20193;-72
2021/08/17 13:51:15;;;;;;;7.80;4.30;;;;;;;;;;5015261;28;20210;-71
2021/08/17 13:53:40;;;;;;;7.93;4.43;;;;;;;;;;5018498;28;20389;-71
2021/08/17 13:56:05;;;;;;;6.32;3.95;;;;;;;;;;5011794;28;20212;-73
2021/08/17 13:58:31;;;;;;;7.32;3.97;;;;;;;;;;5023615;28;20235;-69
2021/08/17 14:00:56;;;;;;;6.55;4.05;;;;;;;;;;5014499;28;20483;-69
2021/08/17 14:03:21;;;;;;;8.65;3.83;;;;;;;;;;5022823;28;20229;-69
2021/08/17 14:05:49;;;;;;;6.70;3.97;;;;;;;;;;5008952;28;20187;-70
2021/08/17 14:08:16;;;;;;;6.63;3.85;;;;;;;;;;5020354;28;20178;-69
2021/08/17 14:10:41;;;;;;;15.75;4.85;;;;;;;;;;5015294;28;20229;-70
2021/08/17 14:13:07;;;;;;;12.23;4.47;;;;;;;;;;5024931;28;20646;-70
2021/08/17 14:15:32;;;;;;;10.18;4.05;;;;;;;;;;5015764;28;20239;-73
2021/08/17 14:17:58;;;;;;;7.75;4.10;;;;;;;;;;5023207;28;20190;-71
2021/08/17 14:20:23;;;;;;;5.28;4.00;;;;;;;;;;5019229;28;20186;-70
2021/08/17 14:22:49;;;;;;;6.35;4.28;;;;;;;;;;5022413;28;20225;-72
2021/08/17 14:25:14;;;;;;;5.07;3.88;;;;;;;;;;5025491;28;20277;-70
2021/08/17 14:27:39;;;;;;;7.10;4.18;;;;;;;;;;5021129;28;20567;-72
2021/08/17 14:30:06;;;;;;;7.47;3.95;;;;;;;;;;5022105;28;20310;-72